Jefferson, SD (57038)

1:59 PM CDT on March 29, 2017 (GMT -0500)
Wynstone | | Change Station

Elev 1089 ft 42.54 °N, 96.56 °W | Updated 11 minutes ago

Rain
Rain
45.3 °F
Feels Like 41 °F
N
9.0
Wind Variable Wind from NE
Gusts 15.0 mph

Today
High -- | Low -- °F
--% Chance of Precip.
Yesterday
High -- | Low -- °F
Precip. -- in
Pressure 30.02 in
Visibility 6.0 miles
Clouds Overcast 1300 ft
Windchill 41 °F
Dew Point 42 °F
Humidity 89%
Rainfall 0.13 in
Snow Depth Not available.
7:13 AM 7:49 PM
Waxing Crescent, 4% visible
METAR KSUX 291852Z 08015G26KT 6SM RA BR OVC013 07/06 A3000 RMK AO2 PK WND 08026/1845 SLP165 P0004 T00670056
Pressure 30.02 in
Visibility 6.0 miles
Clouds Overcast 1300 ft
Windchill 41 °F
Dew Point 42 °F
Humidity 89%
Rainfall 0.13 in
Snow Depth Not available.
7:13 AM 7:49 PM
Waxing Crescent, 4% visible
METAR KSUX 291852Z 08015G26KT 6SM RA BR OVC013 07/06 A3000 RMK AO2 PK WND 08026/1845 SLP165 P0004 T00670056

Get Severe Weather Alerts

Thanks for signing up!

Be on the lookout for a verification email in your inbox.

You'll start receiving the daily forecast at 8 AM.

×

10-Day Weather Forecast

Almanac

Astronomy

Mar. 29, 2017 Rise Set
Actual Time
Civil Twilight
Nautical Twilight
Astronomical Twilight
Moon
Length of Visible Light
Length of Day
Tomorrow will be .
, % of the Moon is Illuminated

Today's Extremes

State Highs State Lows

Community

WunderPhotos

Upload Photos

1,962,540 photos uploaded!

WunderBlog® & News

Nearby

Air Quality

  Air Quality AQ Index Pollutant
Not available.

Snow Depth

Station Depth Elevation

Earthquake Activity

City Distance Mag. Time & Date
Minimum magnitude displayed is 2.5.

Earthquake Activity

City Distance Mag. Time & Date
Minimum magnitude displayed is 2.5.

Coastal Water Temperatures

Place Temperature

Stations

Nearby Weather Stations

Station Location Temp. Windchill Dew Point Humidity Wind Precip. Elev Updated Type
                   

Watches & Warnings

There are currently no watches in effect.